Time;durP1;ratioP1;P1;durP2;ratioP2;P2;SDS_P1;SDS_P2;PMS_P1;PMS_P2;Temp;Humidity;BMP_temperature;BMP_pressure;BME280_temperature;BME280_humidity;BME280_pressure;Samples;Min_cycle;Max_cycle;Signal;HPM_P1;HPM_P2
2023/08/09 00:00:09;;;;;;;1.63;1.13;;;;;;;14.05;99.82;101141.44;4971994;28;20030;-86
2023/08/09 00:02:35;;;;;;;1.30;1.05;;;;;;;14.03;99.26;101144.09;4967002;28;20442;-86
2023/08/09 00:05:00;;;;;;;1.40;1.10;;;;;;;14.02;98.82;101152.84;4972363;28;20030;-85
2023/08/09 00:07:25;;;;;;;1.60;1.15;;;;;;;14.02;98.99;101145.00;4974570;28;20418;-86
2023/08/09 00:09:50;;;;;;;1.50;1.10;;;;;;;14.02;98.31;101145.00;4966903;28;20038;-86
2023/08/09 00:12:16;;;;;;;2.30;1.30;;;;;;;14.01;99.24;101148.53;4969694;28;20560;-86
2023/08/09 00:14:41;;;;;;;2.13;1.20;;;;;;;13.99;99.12;101147.75;4971138;28;20034;-86
2023/08/09 00:17:06;;;;;;;2.03;1.20;;;;;;;13.96;98.82;101163.53;4972235;28;20557;-86
2023/08/09 00:19:32;;;;;;;1.60;1.17;;;;;;;13.96;99.12;101163.53;4968860;28;20035;-86
2023/08/09 00:21:57;;;;;;;2.67;1.15;;;;;;;13.96;98.57;101153.06;4971298;28;20022;-86
2023/08/09 00:24:22;;;;;;;1.30;1.10;;;;;;;13.97;98.49;101152.19;4969375;28;20029;-86
2023/08/09 00:26:47;;;;;;;1.40;1.23;;;;;;;14.00;98.97;101138.13;4939778;29;20059;-86
2023/08/09 00:29:13;;;;;;;2.03;1.20;;;;;;;14.00;99.29;101149.47;4969547;28;20035;-86
2023/08/09 00:31:38;;;;;;;2.50;1.30;;;;;;;13.99;99.52;101142.50;4969113;28;20382;-86
2023/08/09 00:34:06;;;;;;;1.58;1.20;;;;;;;13.99;100.00;101155.59;4965973;28;20023;-86
2023/08/09 00:36:31;;;;;;;2.22;1.30;;;;;;;13.98;100.00;101150.41;4953600;28;20182;-86
2023/08/09 00:38:56;;;;;;;1.88;1.23;;;;;;;13.99;100.00;101152.09;4959984;28;20471;-86
2023/08/09 00:41:22;;;;;;;1.30;1.10;;;;;;;13.97;100.00;101165.25;4973281;28;20027;-87
2023/08/09 00:43:47;;;;;;;1.75;1.25;;;;;;;13.96;100.00;101147.84;4968292;28;20100;-87
2023/08/09 00:46:12;;;;;;;1.30;1.20;;;;;;;13.95;100.00;101159.22;4954679;28;20078;-86
2023/08/09 00:48:38;;;;;;;1.70;1.30;;;;;;;13.95;100.00;101152.22;4959831;28;20039;-87
2023/08/09 00:51:03;;;;;;;1.80;1.40;;;;;;;13.94;100.00;101154.91;4970332;28;20051;-87
2023/08/09 00:53:30;;;;;;;2.38;1.35;;;;;;;13.95;100.00;101156.59;4973019;28;20042;-86
2023/08/09 00:55:55;;;;;;;2.28;1.33;;;;;;;13.94;100.00;101155.72;4969890;28;20403;-86
2023/08/09 00:58:21;;;;;;;1.80;1.42;;;;;;;13.94;100.00;101147.03;4974247;28;20522;-83
2023/08/09 01:00:46;;;;;;;1.55;1.33;;;;;;;13.93;100.00;101151.41;4966258;28;20340;-87
2023/08/09 01:03:13;;;;;;;1.30;1.20;;;;;;;13.94;100.00;101160.13;4969869;28;20486;-87
2023/08/09 01:06:02;;;;;;;1.60;1.40;;;;;;;13.94;100.00;101166.19;4950383;28;20023;-87
2023/08/09 01:08:40;;;;;;;1.58;1.40;;;;;;;13.95;100.00;101164.44;4973092;28;20050;-86
2023/08/09 01:11:13;;;;;;;1.60;1.50;;;;;;;13.95;100.00;101169.69;4969886;28;20031;-86
2023/08/09 01:13:40;;;;;;;1.70;1.33;;;;;;;13.95;100.00;101161.84;4970010;28;20043;-86
2023/08/09 01:16:07;;;;;;;1.70;1.50;;;;;;;13.96;100.00;101168.78;4964942;28;20055;-86
2023/08/09 01:18:33;;;;;;;1.70;1.30;;;;;;;13.95;100.00;101170.53;4971899;28;20034;-86
2023/08/09 01:21:00;;;;;;;3.05;1.77;;;;;;;13.96;100.00;101179.25;4954514;28;20037;-87
2023/08/09 01:23:37;;;;;;;2.03;1.20;;;;;;;13.95;100.00;101170.53;4971653;28;20034;-87
2023/08/09 01:26:04;;;;;;;1.25;1.15;;;;;;;13.95;100.00;101172.28;4968687;28;20027;-86
2023/08/09 01:28:30;;;;;;;2.15;1.35;;;;;;;13.94;100.00;101170.59;4973065;28;20487;-87
2023/08/09 01:30:57;;;;;;;2.13;1.48;;;;;;;13.93;100.00;101179.34;4969487;28;20105;-86
2023/08/09 01:33:22;;;;;;;2.15;1.42;;;;;;;13.93;100.00;101176.72;4968088;28;20057;-86
2023/08/09 01:35:58;;;;;;;2.80;1.55;;;;;;;13.92;100.00;101188.09;4969788;28;20391;-86
2023/08/09 01:38:28;;;;;;;2.17;1.30;;;;;;;13.89;100.00;101189.06;4951904;28;20431;-87
2023/08/09 01:40:54;;;;;;;2.42;1.60;;;;;;;13.88;100.00;101183.88;4952258;28;20117;-87
2023/08/09 01:43:21;;;;;;;1.60;1.40;;;;;;;13.84;100.00;101179.63;4972624;28;20110;-87
2023/08/09 01:45:46;;;;;;;2.10;1.70;;;;;;;13.81;100.00;101172.75;4971236;28;20530;-86
2023/08/09 01:48:13;;;;;;;1.77;1.65;;;;;;;13.78;100.00;101186.81;4972813;28;20062;-86
2023/08/09 01:50:40;;;;;;;2.10;1.60;;;;;;;13.76;100.00;101183.38;4970552;28;20050;-87
2023/08/09 01:53:06;;;;;;;3.50;1.50;;;;;;;13.71;100.00;101177.44;4970746;28;20027;-87
2023/08/09 01:55:32;;;;;;;2.13;1.63;;;;;;;13.70;100.00;101186.19;4968423;28;20029;-87
2023/08/09 01:57:58;;;;;;;2.00;1.45;;;;;;;13.66;100.00;101185.44;4952105;28;20015;-87
2023/08/09 02:00:23;;;;;;;1.90;1.70;;;;;;;13.63;100.00;101182.94;4975942;28;20033;-87
2023/08/09 02:02:50;;;;;;;2.03;1.65;;;;;;;13.63;100.00;101192.53;4974948;28;20023;-87
2023/08/09 02:05:16;;;;;;;2.28;1.50;;;;;;;13.61;100.00;101195.19;4973602;28;20105;-87
2023/08/09 02:07:41;;;;;;;2.72;1.73;;;;;;;13.60;100.00;101197.88;4962213;28;20097;-86
2023/08/09 02:10:10;;;;;;;2.70;1.75;;;;;;;13.58;100.00;101199.69;4975550;28;20030;-86
2023/08/09 02:12:35;;;;;;;2.30;1.80;;;;;;;13.57;100.00;101198.84;4976167;28;20059;-86
2023/08/09 02:15:00;;;;;;;2.53;1.90;;;;;;;13.56;100.00;101204.09;4975718;28;20065;-87
2023/08/09 02:17:27;;;;;;;2.10;1.77;;;;;;;13.55;100.00;101199.78;4975043;28;20101;-86
2023/08/09 02:19:53;;;;;;;2.65;1.90;;;;;;;13.51;100.00;101205.09;4956214;28;20467;-87
2023/08/09 02:22:19;;;;;;;2.35;2.00;;;;;;;13.50;100.00;101203.38;4975260;28;20031;-87
2023/08/09 02:24:44;;;;;;;2.00;1.70;;;;;;;13.49;100.00;101212.13;4975060;28;20094;-87
2023/08/09 02:27:10;;;;;;;2.72;1.88;;;;;;;13.47;100.00;101208.72;4975864;28;20014;-87
2023/08/09 02:29:36;;;;;;;2.22;1.90;;;;;;;13.44;100.00;101213.19;4974638;28;20040;-87
2023/08/09 02:32:02;;;;;;;3.10;1.65;;;;;;;13.38;100.00;101213.38;4961936;28;20034;-86
2023/08/09 02:34:28;;;;;;;3.33;2.08;;;;;;;13.35;100.00;101206.44;4974165;28;20031;-86
2023/08/09 02:36:54;;;;;;;3.25;2.10;;;;;;;13.33;100.00;101201.28;4973267;28;20531;-86
2023/08/09 02:39:19;;;;;;;2.17;1.80;;;;;;;13.31;100.00;101213.53;4975444;28;20034;-87
2023/08/09 02:41:45;;;;;;;2.25;1.98;;;;;;;13.32;100.00;101209.19;4976486;28;20026;-86
2023/08/09 02:44:11;;;;;;;2.30;1.95;;;;;;;13.31;100.00;101220.53;4975944;28;20034;-88
2023/08/09 02:46:36;;;;;;;2.65;1.95;;;;;;;13.31;100.00;101228.38;4976588;28;20034;-87
2023/08/09 02:49:02;;;;;;;2.50;1.98;;;;;;;13.29;100.00;101222.34;4976328;28;20054;-87
2023/08/09 02:51:28;;;;;;;2.75;1.95;;;;;;;13.26;100.00;101236.34;4975192;28;20165;-86
2023/08/09 02:54:05;;;;;;;2.80;2.20;;;;;;;13.25;100.00;101231.16;4974865;28;20479;-86
2023/08/09 02:56:31;;;;;;;4.75;1.92;;;;;;;13.20;100.00;101229.53;4975044;28;20039;-87
2023/08/09 02:58:57;;;;;;;4.15;2.00;;;;;;;13.18;100.00;101223.50;4975199;28;20030;-87
2023/08/09 03:01:23;;;;;;;2.20;1.60;;;;;;;13.15;100.00;101227.97;4965179;28;20125;-87
2023/08/09 03:03:53;;;;;;;3.30;1.70;;;;;;;13.13;100.00;101241.09;4972080;28;20038;-87
2023/08/09 03:06:20;;;;;;;1.88;1.58;;;;;;;13.10;100.00;101241.19;4974121;28;20031;-86
2023/08/09 03:08:46;;;;;;;1.63;1.52;;;;;;;13.08;100.00;101243.00;4943796;28;20443;-86
2023/08/09 03:11:12;;;;;;;2.33;1.80;;;;;;;13.07;100.00;101246.50;4971470;28;20026;-86
2023/08/09 03:13:37;;;;;;;2.90;1.80;;;;;;;13.06;100.00;101244.78;4973218;28;20030;-87
2023/08/09 03:16:03;;;;;;;2.05;1.80;;;;;;;13.03;100.00;101252.72;4974626;28;20477;-87
2023/08/09 03:18:28;;;;;;;2.97;1.67;;;;;;;13.03;100.00;101244.88;4971846;28;20038;-88
2023/08/09 03:20:53;;;;;;;2.50;1.80;;;;;;;13.00;100.00;101244.97;4975131;28;20118;-87
2023/08/09 03:23:18;;;;;;;3.15;1.80;;;;;;;12.97;100.00;101239.84;4972915;28;20026;-87
2023/08/09 03:25:44;;;;;;;3.15;1.95;;;;;;;12.95;100.00;101241.66;4974219;28;20406;-87
2023/08/09 03:28:10;;;;;;;2.78;1.98;;;;;;;12.93;100.00;101246.06;4974088;28;20027;-87
2023/08/09 03:30:35;;;;;;;2.58;2.10;;;;;;;12.90;100.00;101255.69;4973565;28;20035;-87
2023/08/09 03:33:01;;;;;;;3.10;1.85;;;;;;;12.89;100.00;101253.97;4972964;28;20039;-86
2023/08/09 03:35:27;;;;;;;2.47;2.15;;;;;;;12.86;99.87;101266.28;4972553;28;20463;-87
2023/08/09 03:37:52;;;;;;;2.03;1.80;;;;;;;12.81;99.47;101266.38;4968720;28;20039;-87
2023/08/09 03:40:17;;;;;;;2.33;1.85;;;;;;;12.73;99.04;101273.59;4972824;28;20034;-87
2023/08/09 03:42:43;;;;;;;2.30;2.00;;;;;;;12.69;99.43;101271.94;4974510;28;20036;-87
2023/08/09 03:45:09;;;;;;;4.40;1.80;;;;;;;12.65;99.69;101278.16;4967107;28;20053;-87
2023/08/09 03:47:36;;;;;;;2.00;1.80;;;;;;;12.64;99.85;101279.91;4974418;28;20121;-87
2023/08/09 03:50:02;;;;;;;4.30;1.98;;;;;;;12.64;100.00;101286.91;4971748;28;20030;-87
2023/08/09 03:52:28;;;;;;;3.38;2.10;;;;;;;12.65;100.00;101285.97;4966130;28;20126;-88
2023/08/09 03:54:55;;;;;;;2.30;2.00;;;;;;;12.66;100.00;101283.34;4968315;28;20478;-87
2023/08/09 03:57:21;;;;;;;2.70;1.80;;;;;;;12.66;100.00;101275.50;4951603;28;20027;-87
2023/08/09 03:59:46;;;;;;;2.90;2.28;;;;;;;12.66;100.00;101283.34;4966504;28;20033;-87
2023/08/09 04:02:12;;;;;;;4.18;2.20;;;;;;;12.67;100.00;101286.78;4973936;28;20101;-87
2023/08/09 04:04:37;;;;;;;4.35;2.33;;;;;;;12.67;100.00;101289.41;4973378;28;20097;-87
2023/08/09 04:07:02;;;;;;;3.20;2.53;;;;;;;12.67;100.00;101295.50;4973577;28;20035;-87
2023/08/09 04:09:28;;;;;;;4.95;2.25;;;;;;;12.66;100.00;101300.75;4973311;28;20078;-87
2023/08/09 04:11:53;;;;;;;5.55;2.10;;;;;;;12.65;100.00;101302.50;4972216;28;20343;-86
2023/08/09 04:14:19;;;;;;;2.95;2.13;;;;;;;12.61;100.00;101298.25;4955005;28;20026;-87
2023/08/09 04:16:44;;;;;;;2.40;2.00;;;;;;;12.60;100.00;101300.03;4970173;28;20354;-87
2023/08/09 04:19:10;;;;;;;2.70;2.20;;;;;;;12.59;100.00;101303.53;4966940;28;20385;-87
2023/08/09 04:21:35;;;;;;;4.00;1.85;;;;;;;12.59;100.00;101308.75;4969540;28;20031;-86
2023/08/09 04:24:00;;;;;;;2.30;1.80;;;;;;;12.58;100.00;101301.81;4970842;28;20491;-87
2023/08/09 04:26:25;;;;;;;2.45;1.70;;;;;;;12.58;100.00;101312.25;4967545;28;20095;-86
2023/08/09 04:28:51;;;;;;;5.50;1.65;;;;;;;12.55;100.00;101306.28;4972758;28;20084;-87
2023/08/09 04:31:16;;;;;;;2.05;1.85;;;;;;;12.54;100.00;101302.78;4972113;28;20042;-86
2023/08/09 04:33:49;;;;;;;2.42;1.40;;;;;;;12.54;100.00;101300.19;4970098;28;20023;-86
2023/08/09 04:36:14;;;;;;;1.60;1.50;;;;;;;12.56;100.00;101314.06;4964645;28;20035;-87
2023/08/09 04:38:40;;;;;;;2.70;1.48;;;;;;;12.56;100.00;101313.19;4973519;28;20395;-88
2023/08/09 04:41:05;;;;;;;1.90;1.70;;;;;;;12.57;100.00;101317.50;4971180;28;20078;-88
2023/08/09 04:43:30;;;;;;;2.05;1.85;;;;;;;12.57;100.00;101321.00;4973154;28;20026;-87
2023/08/09 04:45:55;;;;;;;2.38;1.77;;;;;;;12.57;100.00;101320.13;4966098;28;20035;-87
2023/08/09 04:48:21;;;;;;;2.80;1.90;;;;;;;12.57;100.00;101321.00;4955064;29;20467;-88
2023/08/09 04:50:47;;;;;;;1.92;1.70;;;;;;;12.59;100.00;101331.38;4964410;28;20055;-87
2023/08/09 04:53:12;;;;;;;5.93;2.30;;;;;;;12.58;100.00;101325.31;4970173;28;20047;-87
2023/08/09 04:55:38;;;;;;;6.93;3.28;;;;;;;12.59;100.00;101334.84;4967463;28;20034;-87
2023/08/09 04:58:03;;;;;;;4.68;2.47;;;;;;;12.62;100.00;101333.06;4966795;28;20030;-87
2023/08/09 05:00:28;;;;;;;3.60;2.75;;;;;;;12.63;100.00;101330.41;4964392;28;20098;-86
2023/08/09 05:02:54;;;;;;;4.20;3.03;;;;;;;12.65;100.00;101328.63;4971520;28;20030;-87
2023/08/09 05:05:19;;;;;;;4.22;3.40;;;;;;;12.68;100.00;101328.53;4966672;28;20038;-87
2023/08/09 05:07:44;;;;;;;5.10;4.03;;;;;;;12.70;100.00;101325.88;4965714;28;20039;-87
2023/08/09 05:10:10;;;;;;;4.97;3.95;;;;;;;12.73;100.00;101338.84;4964856;28;20027;-87
2023/08/09 05:12:36;;;;;;;5.35;4.25;;;;;;;12.76;100.00;101341.38;4965878;28;20033;-87
2023/08/09 05:15:01;;;;;;;5.95;4.28;;;;;;;12.78;100.00;101350.03;4954930;28;20026;-87
2023/08/09 05:17:26;;;;;;;5.60;4.25;;;;;;;12.81;100.00;101355.16;4962426;28;20437;-88
2023/08/09 05:19:52;;;;;;;5.18;4.20;;;;;;;12.86;100.00;101352.44;4966551;28;20467;-88
2023/08/09 05:22:17;;;;;;;5.05;4.30;;;;;;;12.90;100.00;101354.03;4965493;28;20123;-87
2023/08/09 05:24:42;;;;;;;6.18;5.00;;;;;;;12.95;100.00;101346.94;4960194;28;20031;-87
2023/08/09 05:27:07;;;;;;;9.13;6.78;;;;;;;13.00;100.00;101347.69;4971083;28;20533;-87
2023/08/09 05:29:33;;;;;;;7.85;6.20;;;;;;;13.05;100.00;101352.78;4972960;28;20085;-88
2023/08/09 05:31:58;;;;;;;8.80;6.50;;;;;;;13.09;100.00;101364.00;4969902;28;20035;-87
2023/08/09 05:34:24;;;;;;;7.70;5.95;;;;;;;13.14;100.00;101363.00;4976098;28;20469;-88
2023/08/09 05:36:49;;;;;;;8.20;6.65;;;;;;;13.20;100.00;101364.56;4971831;28;20118;-87
2023/08/09 05:39:15;;;;;;;6.38;5.70;;;;;;;13.23;100.00;101361.00;4976676;28;20042;-87
2023/08/09 05:41:40;;;;;;;6.80;6.10;;;;;;;13.29;100.00;101366.06;4974633;28;20097;-87
2023/08/09 05:44:05;;;;;;;7.25;5.97;;;;;;;13.33;100.00;101368.53;4977172;28;20062;-88
2023/08/09 05:46:31;;;;;;;7.07;6.38;;;;;;;13.40;100.00;101369.25;4972306;28;20081;-87
2023/08/09 05:48:56;;;;;;;6.90;6.03;;;;;;;13.46;100.00;101362.97;4974280;28;20073;-86
2023/08/09 05:51:22;;;;;;;7.80;5.93;;;;;;;13.53;100.00;101374.97;4973397;28;20058;-87
2023/08/09 05:53:48;;;;;;;6.40;5.68;;;;;;;13.58;100.00;101366.97;4974976;28;20394;-87
2023/08/09 05:56:13;;;;;;;6.95;5.75;;;;;;;13.65;100.00;101378.97;4973926;28;20039;-87
2023/08/09 05:58:38;;;;;;;8.38;5.43;;;;;;;13.67;100.00;101371.91;4963190;28;20030;-87
2023/08/09 06:01:07;;;;;;;8.20;6.47;;;;;;;13.70;100.00;101376.22;4975154;28;20046;-87
2023/08/09 06:03:35;;;;;;;7.40;6.10;;;;;;;13.72;100.00;101374.41;4975445;28;20497;-87
2023/08/09 06:06:00;;;;;;;7.90;5.97;;;;;;;13.74;100.00;101370.00;4975589;28;20139;-87
2023/08/09 06:08:26;;;;;;;7.28;5.88;;;;;;;13.77;100.00;101369.88;4972509;28;20066;-87
2023/08/09 06:10:52;;;;;;;9.02;6.07;;;;;;;13.79;100.00;101382.03;4975034;28;20038;-87
2023/08/09 06:13:18;;;;;;;7.75;5.93;;;;;;;13.81;100.00;101384.59;4975424;28;20094;-87
2023/08/09 06:15:43;;;;;;;7.80;6.40;;;;;;;13.85;100.00;101390.56;4974579;28;20034;-87
2023/08/09 06:18:08;;;;;;;7.78;6.28;;;;;;;13.85;100.00;101395.81;4974917;28;20106;-87
2023/08/09 06:20:33;;;;;;;7.32;5.80;;;;;;;13.87;100.00;101396.63;4974686;28;20034;-87
2023/08/09 06:22:59;;;;;;;8.90;5.93;;;;;;;13.89;100.00;101402.66;4975165;28;20023;-87
2023/08/09 06:25:24;;;;;;;9.00;6.30;;;;;;;13.91;100.00;101416.56;4967440;28;20114;-87
2023/08/09 06:27:50;;;;;;;7.47;6.45;;;;;;;13.92;100.00;101407.81;4973978;28;20478;-87
2023/08/09 06:30:15;;;;;;;8.40;5.93;;;;;;;13.94;100.00;101413.84;4974595;28;20101;-87
2023/08/09 06:32:41;;;;;;;7.88;6.30;;;;;;;13.98;100.00;101417.22;4971045;28;20466;-87
2023/08/09 06:35:09;;;;;;;8.00;6.15;;;;;;;14.01;100.00;101420.59;4973255;28;20094;-88
2023/08/09 06:37:34;;;;;;;8.10;6.30;;;;;;;14.04;100.00;101420.50;4971831;28;20030;-88
2023/08/09 06:40:00;;;;;;;8.65;6.13;;;;;;;14.05;100.00;101419.59;4974120;28;20030;-89
2023/08/09 06:42:25;;;;;;;8.80;6.63;;;;;;;14.07;100.00;101423.03;4953321;28;20027;-89
2023/08/09 06:44:50;;;;;;;10.13;7.05;;;;;;;14.14;100.00;101422.84;4974041;28;20379;-88
2023/08/09 06:47:16;;;;;;;10.75;7.03;;;;;;;14.17;100.00;101420.13;4973565;28;20023;-89
2023/08/09 06:49:41;;;;;;;8.93;7.18;;;;;;;14.21;100.00;101426.97;4972803;28;20069;-88
2023/08/09 06:52:06;;;;;;;10.48;7.70;;;;;;;14.25;100.00;101429.47;4968057;28;20129;-88
2023/08/09 06:54:32;;;;;;;10.15;7.35;;;;;;;14.31;100.00;101427.53;4971547;28;20078;-89
2023/08/09 06:56:57;;;;;;;11.48;8.57;;;;;;;14.36;100.00;101434.31;4971234;28;20049;-89
2023/08/09 06:59:22;;;;;;;10.27;8.25;;;;;;;14.41;100.00;101437.66;4972403;28;20031;-88
2023/08/09 07:01:48;;;;;;;9.93;8.88;;;;;;;14.47;100.00;101446.22;4973876;28;20486;-88
2023/08/09 07:04:15;;;;;;;11.95;9.43;;;;;;;14.55;100.00;101446.81;4970922;28;21489;-89
2023/08/09 07:06:40;;;;;;;12.98;9.13;;;;;;;14.61;100.00;101453.59;4968765;28;20027;-88
2023/08/09 07:09:05;;;;;;;11.88;10.10;;;;;;;14.66;100.00;101447.34;4970949;28;20106;-88
2023/08/09 07:11:31;;;;;;;12.02;9.82;;;;;;;14.72;100.00;101441.91;4969262;28;20027;-88
2023/08/09 07:13:56;;;;;;;11.82;9.70;;;;;;;14.78;100.00;101450.47;4967977;28;20431;-89
2023/08/09 07:16:21;;;;;;;11.38;9.55;;;;;;;14.85;100.00;101457.22;4972293;28;20034;-89
2023/08/09 07:18:47;;;;;;;11.32;9.60;;;;;;;14.87;100.00;101461.50;4966093;28;20038;-90
2023/08/09 07:21:12;;;;;;;13.10;10.43;;;;;;;14.86;100.00;101453.66;4968613;28;20030;-89
2023/08/09 07:23:37;;;;;;;12.02;10.35;;;;;;;14.83;100.00;101449.41;4968536;28;20034;-89
2023/08/09 07:26:03;;;;;;;12.25;10.52;;;;;;;14.82;100.00;101457.31;4969731;28;20031;-89
2023/08/09 07:28:28;;;;;;;13.25;10.65;;;;;;;14.85;100.00;101457.22;4963472;28;20723;-89
2023/08/09 07:30:53;;;;;;;13.00;10.23;;;;;;;14.90;100.00;101459.69;4970091;28;20025;-89
2023/08/09 07:33:21;;;;;;;13.77;10.13;;;;;;;14.95;100.00;101458.63;4961393;28;20099;-89
2023/08/09 07:35:48;;;;;;;13.07;9.60;;;;;;;15.01;100.00;101465.41;4952301;28;20030;-88
2023/08/09 07:38:14;;;;;;;13.05;10.32;;;;;;;15.03;100.00;101466.22;4946873;28;20035;-88
2023/08/09 07:40:39;;;;;;;13.38;10.68;;;;;;;15.08;100.00;101458.19;4967600;28;20058;-89
2023/08/09 07:43:04;;;;;;;13.82;10.35;;;;;;;15.12;100.00;101455.41;4964557;28;20110;-89
2023/08/09 07:45:29;;;;;;;14.20;10.60;;;;;;;15.15;100.00;101464.94;4969375;28;20178;-88
2023/08/09 07:47:55;;;;;;;12.43;9.50;;;;;;;15.15;100.00;101471.03;4971253;28;20099;-89
2023/08/09 07:50:20;;;;;;;14.30;10.60;;;;;;;15.16;100.00;101479.75;4955921;28;20386;-88
2023/08/09 07:52:47;;;;;;;11.65;9.15;;;;;;;15.18;100.00;101481.41;4972550;28;20490;-89
2023/08/09 07:55:12;;;;;;;12.98;9.70;;;;;;;15.22;100.00;101482.16;4969653;28;20031;-88
2023/08/09 07:57:38;;;;;;;13.35;10.05;;;;;;;15.28;100.00;101478.47;4972407;28;20034;-88
2023/08/09 08:00:06;;;;;;;12.93;9.80;;;;;;;15.33;100.00;101479.16;4968500;28;20027;-89
2023/08/09 08:02:31;;;;;;;13.32;9.68;;;;;;;15.39;100.00;101481.56;4970493;28;20071;-89
2023/08/09 08:04:56;;;;;;;12.07;8.40;;;;;;;15.44;100.00;101486.63;4966857;28;20031;-88
2023/08/09 08:07:21;;;;;;;11.00;8.32;;;;;;;15.47;100.00;101491.78;4969926;28;20474;-89
2023/08/09 08:09:47;;;;;;;10.63;7.70;;;;;;;15.52;100.00;101495.09;4970271;28;20089;-88
2023/08/09 08:12:13;;;;;;;11.82;8.38;;;;;;;15.60;100.00;101495.66;4971330;28;20149;-88
2023/08/09 08:14:38;;;;;;;12.70;8.50;;;;;;;15.70;100.00;101495.34;4965514;28;20054;-88
2023/08/09 08:17:04;;;;;;;14.30;8.63;;;;;;;15.76;100.00;101493.34;4964569;28;20043;-88
2023/08/09 08:19:29;;;;;;;11.43;7.88;;;;;;;15.82;100.00;101505.38;4972307;28;20027;-88
2023/08/09 08:21:54;;;;;;;11.90;7.95;;;;;;;15.86;100.00;101504.38;4970938;28;20526;-88
2023/08/09 08:24:20;;;;;;;10.32;7.40;;;;;;;15.85;98.47;101510.53;4970311;28;20042;-87
2023/08/09 08:26:45;;;;;;;10.38;7.45;;;;;;;15.86;97.59;101509.63;4969806;28;20026;-87
2023/08/09 08:29:10;;;;;;;11.05;6.97;;;;;;;15.89;98.84;101514.72;4950338;28;20027;-87
2023/08/09 08:31:36;;;;;;;9.73;6.32;;;;;;;15.97;98.09;101518.84;4969872;28;20034;-87
2023/08/09 08:34:02;;;;;;;8.77;5.90;;;;;;;16.02;97.59;101519.53;4948120;28;20474;-87
2023/08/09 08:36:27;;;;;;;8.15;6.40;;;;;;;16.10;97.89;101511.38;4965844;28;20042;-87
2023/08/09 08:38:53;;;;;;;9.80;6.78;;;;;;;16.11;96.15;101519.19;4967456;28;20090;-87
2023/08/09 08:41:18;;;;;;;9.15;6.72;;;;;;;16.18;97.01;101519.78;4963522;28;20027;-88
2023/08/09 08:43:44;;;;;;;10.40;6.05;;;;;;;16.27;96.72;101523.84;4965660;28;20031;-88
2023/08/09 08:46:14;;;;;;;9.05;6.13;;;;;;;16.32;94.57;101527.16;4950447;28;20019;-88
2023/08/09 08:48:46;;;;;;;8.95;5.28;;;;;;;16.37;93.22;101527.84;4966568;28;20043;-87
2023/08/09 08:51:12;;;;;;;7.30;4.70;;;;;;;16.41;93.89;101536.44;4962413;28;20130;-88
2023/08/09 08:53:38;;;;;;;7.45;4.97;;;;;;;16.44;93.82;101529.28;4966559;28;20031;-87
2023/08/09 08:56:04;;;;;;;11.00;5.57;;;;;;;16.45;91.79;101538.88;4967654;28;20090;-88
2023/08/09 08:58:30;;;;;;;9.65;5.38;;;;;;;16.48;92.66;101538.75;4961349;28;20030;-88
2023/08/09 09:00:56;;;;;;;8.52;5.50;;;;;;;16.53;92.19;101544.69;4963680;28;20398;-88
2023/08/09 09:03:21;;;;;;;6.35;4.32;;;;;;;16.54;90.68;101535.91;4948563;28;20023;-88
2023/08/09 09:05:46;;;;;;;5.80;4.10;;;;;;;16.56;88.94;101548.97;4965001;28;20094;-88
2023/08/09 09:08:13;;;;;;;6.00;4.40;;;;;;;16.54;88.41;101549.03;4967242;28;20054;-89
2023/08/09 09:10:43;;;;;;;6.20;3.97;;;;;;;16.53;88.30;101551.72;4966382;28;20027;-94
2023/08/09 09:13:08;;;;;;;6.18;4.30;;;;;;;16.56;91.41;101540.25;4966545;28;20025;-88
2023/08/09 09:15:39;;;;;;;5.68;4.13;;;;;;;16.58;90.46;101539.25;4966533;28;20062;-88
2023/08/09 09:18:05;;;;;;;5.95;4.07;;;;;;;16.63;89.60;101552.19;4958284;28;20038;-88
2023/08/09 09:20:31;;;;;;;6.55;4.18;;;;;;;16.65;87.97;101555.63;4964404;28;20541;-88
2023/08/09 09:22:56;;;;;;;6.68;4.70;;;;;;;16.73;90.29;101557.94;4962111;28;20023;-89
2023/08/09 09:25:23;;;;;;;6.47;4.60;;;;;;;16.79;89.36;101569.06;4966828;28;20026;-89
2023/08/09 09:27:52;;;;;;;5.28;3.90;;;;;;;16.86;87.74;101572.28;4950234;28;20038;-87
2023/08/09 09:30:19;;;;;;;5.00;3.72;;;;;;;16.92;87.17;101573.81;4952062;28;20102;-88
2023/08/09 09:32:57;;;;;;;6.78;4.13;;;;;;;16.98;88.07;101566.59;4949928;28;20743;-89
2023/08/09 09:35:28;;;;;;;6.88;4.15;;;;;;;17.04;85.48;101568.09;4969195;28;20038;-87
2023/08/09 09:37:58;;;;;;;;;;;;;;;17.09;89.34;101576.63;4968724;28;20033;-86
2023/08/09 09:40:31;;;;;;;5.35;3.92;;;;;;;17.08;85.04;101574.06;4969796;28;19921;-86
2023/08/09 09:42:58;;;;;;;6.07;3.97;;;;;;;17.07;83.40;101572.38;4965749;28;20030;-86
2023/08/09 09:45:29;;;;;;;7.07;4.07;;;;;;;17.10;85.88;101573.09;4968392;28;20101;-86
2023/08/09 09:47:56;;;;;;;7.18;4.28;;;;;;;17.16;87.71;101560.63;4967996;28;20035;-87
2023/08/09 09:50:22;;;;;;;6.53;3.70;;;;;;;17.20;87.44;101567.47;4968825;28;20031;-87
2023/08/09 09:52:52;;;;;;;6.05;3.67;;;;;;;17.24;85.45;101571.69;4967062;28;20055;-87
2023/08/09 09:55:20;;;;;;;5.45;3.70;;;;;;;17.30;85.51;101574.03;4966437;28;20066;-88
2023/08/09 09:57:49;;;;;;;5.45;3.80;;;;;;;17.33;83.98;101573.91;4965597;28;20121;-88
2023/08/09 10:00:15;;;;;;;4.72;3.33;;;;;;;17.39;83.58;101568.41;4968120;28;20089;-88
2023/08/09 10:02:47;;;;;;;5.03;2.92;;;;;;;17.45;82.30;101572.53;4966660;28;20046;-88
2023/08/09 10:05:16;;;;;;;4.75;3.30;;;;;;;17.49;82.52;101565.34;4969738;28;20026;-88
2023/08/09 10:07:43;;;;;;;5.35;3.38;;;;;;;17.50;81.22;101567.06;4968997;28;20037;-86
2023/08/09 10:10:09;;;;;;;5.32;3.38;;;;;;;17.53;80.50;101564.31;4969910;28;20031;-86
2023/08/09 10:12:35;;;;;;;6.03;3.50;;;;;;;17.55;80.71;101573.00;4967650;28;20034;-87
2023/08/09 10:15:02;;;;;;;5.32;3.58;;;;;;;17.59;79.93;101567.53;4968277;28;20105;-87
2023/08/09 10:17:30;;;;;;;5.50;3.05;;;;;;;17.65;79.44;101569.03;4966165;28;21119;-87
2023/08/09 10:19:59;;;;;;;5.30;3.35;;;;;;;17.66;79.26;101568.09;4970264;28;20113;-88
2023/08/09 10:22:25;;;;;;;6.00;2.97;;;;;;;17.64;79.43;101564.69;4970029;28;20030;-88
2023/08/09 10:24:51;;;;;;;4.28;2.83;;;;;;;17.62;79.36;101568.31;4971940;28;20034;-86
2023/08/09 10:27:53;;;;;;;3.78;2.70;;;;;;;17.63;80.09;101570.84;4969737;28;20097;-86
2023/08/09 10:30:26;;;;;;;7.10;3.03;;;;;;;17.63;79.51;101568.22;4951967;28;20050;-86
2023/08/09 10:32:53;;;;;;;4.30;2.95;;;;;;;17.67;79.08;101576.88;4969592;28;20082;-87
2023/08/09 10:35:43;;;;;;;4.38;3.13;;;;;;;17.75;82.25;101577.38;4969847;28;20109;-87
2023/08/09 10:38:11;;;;;;;4.53;3.20;;;;;;;17.80;81.07;101578.03;4970701;28;20038;-87
2023/08/09 10:40:40;;;;;;;4.22;3.13;;;;;;;17.87;81.61;101578.59;4971092;28;20566;-88
2023/08/09 10:43:06;;;;;;;4.40;2.95;;;;;;;17.89;77.19;101582.03;4970889;28;20125;-88
2023/08/09 10:45:31;;;;;;;4.85;3.28;;;;;;;17.88;79.46;101575.88;4968841;28;20526;-87
2023/08/09 10:48:26;;;;;;;6.05;4.00;;;;;;;17.86;80.28;101584.78;4969068;28;20038;-87
2023/08/09 10:51:17;;;;;;;6.38;3.97;;;;;;;17.84;80.58;101584.00;4970078;28;20043;-86
2023/08/09 10:54:03;;;;;;;6.40;4.53;;;;;;;17.84;79.79;101579.59;4969265;28;20125;-86
2023/08/09 10:56:28;;;;;;;7.15;4.30;;;;;;;17.87;81.15;101579.44;4970367;28;20035;-85
2023/08/09 10:58:53;;;;;;;7.07;5.20;;;;;;;17.97;79.76;101574.63;4970728;28;20163;-86
2023/08/09 11:01:19;;;;;;;6.03;4.93;;;;;;;18.09;80.33;101575.03;4969775;28;20113;-88
2023/08/09 11:03:44;;;;;;;6.05;4.75;;;;;;;18.18;78.46;101577.22;4970191;28;20022;-87
2023/08/09 11:06:09;;;;;;;6.40;5.05;;;;;;;18.22;78.12;101578.81;4969605;28;20023;-87
2023/08/09 11:08:34;;;;;;;7.40;4.60;;;;;;;18.26;78.29;101579.50;4971343;28;20045;-87
2023/08/09 11:11:01;;;;;;;6.47;4.80;;;;;;;18.25;80.24;101572.53;4971587;28;20467;-87
2023/08/09 11:13:27;;;;;;;19.92;5.53;;;;;;;18.24;79.85;101570.81;4970625;28;20058;-86
2023/08/09 11:15:53;;;;;;;7.82;4.93;;;;;;;18.25;77.37;101568.13;4970525;28;20050;-85